Time;durP1;ratioP1;P1;durP2;ratioP2;P2;SDS_P1;SDS_P2;PMS_P1;PMS_P2;Temp;Humidity;BMP_temperature;BMP_pressure;BME280_temperature;BME280_humidity;BME280_pressure;Samples;Min_cycle;Max_cycle;Signal;HPM_P1;HPM_P2
2023/07/26 00:01:45;;;;;;;8.15;2.28;;;;;;;12.61;100.00;100735.72;4987305;28;20050;-74
2023/07/26 00:04:11;;;;;;;7.53;2.67;;;;;;;12.61;100.00;100739.31;4994420;28;20132;-75
2023/07/26 00:06:38;;;;;;;4.97;2.42;;;;;;;12.62;100.00;100740.09;4994717;28;20039;-74
2023/07/26 00:09:05;;;;;;;7.60;2.35;;;;;;;12.63;100.00;100750.03;4992781;28;20050;-75
2023/07/26 00:11:32;;;;;;;5.55;2.30;;;;;;;12.64;100.00;100744.03;4991693;28;20046;-74
2023/07/26 00:13:58;;;;;;;7.95;2.42;;;;;;;12.58;100.00;100734.59;4991527;28;20100;-75
2023/07/26 00:16:25;;;;;;;9.13;4.25;;;;;;;12.67;100.00;100742.38;4993748;28;20049;-75
2023/07/26 00:18:52;;;;;;;5.43;2.25;;;;;;;12.65;100.00;100742.03;4993781;28;20096;-74
2023/07/26 00:21:18;;;;;;;7.53;2.53;;;;;;;12.64;100.00;100741.25;4994003;28;20549;-74
2023/07/26 00:23:45;;;;;;;7.00;2.75;;;;;;;12.64;100.00;100746.03;4997263;28;20085;-75
2023/07/26 00:26:11;;;;;;;7.75;2.85;;;;;;;12.63;100.00;100750.03;4994334;28;20471;-75
2023/07/26 00:28:38;;;;;;;7.38;2.75;;;;;;;12.64;100.00;100746.03;4994832;28;20126;-75
2023/07/26 00:31:05;;;;;;;7.80;2.40;;;;;;;12.67;100.00;100754.31;4993917;28;20054;-74
2023/07/26 00:33:31;;;;;;;4.97;2.55;;;;;;;12.69;100.00;100753.91;4993558;28;20058;-74
2023/07/26 00:35:58;;;;;;;6.68;2.80;;;;;;;12.67;100.00;100745.16;4995942;28;20076;-74
2023/07/26 00:38:24;;;;;;;5.57;3.08;;;;;;;12.69;100.00;100748.31;4988681;28;20102;-75
2023/07/26 00:40:51;;;;;;;5.03;2.60;;;;;;;12.65;100.00;100747.63;4993626;28;20058;-74
2023/07/26 00:43:17;;;;;;;6.47;2.78;;;;;;;12.50;100.00;100747.88;4984492;28;20130;-74
2023/07/26 00:45:44;;;;;;;6.28;2.70;;;;;;;12.48;100.00;100749.53;4986290;28;20561;-72
2023/07/26 00:48:11;;;;;;;9.07;3.22;;;;;;;12.35;100.00;100749.38;4982781;28;20060;-74
2023/07/26 00:50:40;;;;;;;6.28;2.75;;;;;;;12.25;100.00;100758.72;4983344;28;20113;-75
2023/07/26 00:53:07;;;;;;;10.60;3.42;;;;;;;12.16;100.00;100754.94;4986719;28;20591;-75
2023/07/26 00:55:35;;;;;;;9.02;3.00;;;;;;;12.13;100.00;100756.56;4989536;28;20164;-75
2023/07/26 00:58:02;;;;;;;7.25;2.70;;;;;;;12.23;100.00;100761.16;4988536;28;20080;-75
2023/07/26 01:00:29;;;;;;;7.40;2.55;;;;;;;12.32;100.00;100764.16;4988545;28;20055;-74
2023/07/26 01:02:56;;;;;;;12.65;3.20;;;;;;;12.37;100.00;100752.56;4986975;28;20493;-74
2023/07/26 01:05:26;;;;;;;7.07;2.90;;;;;;;12.40;100.00;100765.63;4991388;28;20133;-75
2023/07/26 01:08:12;;;;;;;4.80;2.67;;;;;;;12.43;100.00;100759.19;4991341;28;20129;-74
2023/07/26 01:10:52;;;;;;;9.20;2.88;;;;;;;12.44;100.00;100754.41;4987619;28;20085;-74
2023/07/26 01:13:40;;;;;;;7.82;2.92;;;;;;;12.46;100.00;100747.19;4988331;28;20042;-73
2023/07/26 01:16:08;;;;;;;10.00;3.17;;;;;;;12.43;100.00;100753.59;4990279;28;20058;-73
2023/07/26 01:18:34;;;;;;;7.57;2.75;;;;;;;12.45;100.00;100751.19;4981094;28;20120;-72
2023/07/26 01:21:01;;;;;;;9.52;4.32;;;;;;;12.50;100.00;100749.91;4988329;28;20077;-75
2023/07/26 01:23:27;;;;;;;5.70;2.50;;;;;;;12.53;100.00;100747.03;4984215;28;20070;-73
2023/07/26 01:25:54;;;;;;;9.43;3.05;;;;;;;12.61;100.00;100746.88;4989133;28;20046;-73
2023/07/26 01:28:20;;;;;;;6.13;2.83;;;;;;;12.61;100.00;100744.09;4988017;28;20078;-76
2023/07/26 01:30:48;;;;;;;7.22;2.85;;;;;;;12.65;100.00;100751.16;4988335;28;20141;-73
2023/07/26 01:33:17;;;;;;;5.88;2.80;;;;;;;12.70;100.00;100749.88;4986770;28;20050;-75
2023/07/26 01:35:45;;;;;;;11.43;3.38;;;;;;;12.63;100.00;100745.25;4972826;28;20144;-73
2023/07/26 01:38:12;;;;;;;8.23;3.10;;;;;;;12.55;100.00;100743.81;4987247;28;20176;-72
2023/07/26 01:40:40;;;;;;;7.47;3.60;;;;;;;12.52;100.00;100738.31;4990258;28;20046;-72
2023/07/26 01:43:07;;;;;;;8.52;3.90;;;;;;;12.53;100.00;100749.81;4988552;28;20050;-73
2023/07/26 01:45:33;;;;;;;7.68;3.67;;;;;;;12.54;100.00;100736.66;4985443;28;20047;-73
2023/07/26 01:48:00;;;;;;;8.48;3.78;;;;;;;12.57;100.00;100735.81;4987823;28;20045;-73
2023/07/26 01:50:26;;;;;;;9.57;3.80;;;;;;;12.59;100.00;100740.97;4988542;28;20136;-73
2023/07/26 01:52:53;;;;;;;9.95;3.38;;;;;;;12.53;100.00;100741.44;4986129;28;20092;-73
2023/07/26 01:55:19;;;;;;;10.98;3.53;;;;;;;12.55;100.00;100743.03;4986028;28;20050;-73
2023/07/26 01:57:46;;;;;;;8.73;3.40;;;;;;;12.52;100.00;100743.91;4989029;28;20071;-72
2023/07/26 02:00:12;;;;;;;11.10;3.67;;;;;;;12.56;100.00;100742.63;4983225;28;20410;-72
2023/07/26 02:02:39;;;;;;;10.48;4.22;;;;;;;12.62;100.00;100743.66;4977897;28;20043;-73
2023/07/26 02:05:06;;;;;;;7.30;2.88;;;;;;;12.68;100.00;100743.94;4987313;28;20050;-75
2023/07/26 02:07:33;;;;;;;7.07;2.83;;;;;;;12.75;100.00;100741.00;4985127;28;20046;-72
2023/07/26 02:10:00;;;;;;;5.85;2.90;;;;;;;12.81;100.00;100750.44;4987962;28;20050;-70
2023/07/26 02:12:26;;;;;;;8.95;3.08;;;;;;;12.84;100.00;100755.16;4986049;28;20046;-73
2023/07/26 02:14:53;;;;;;;8.82;3.17;;;;;;;12.87;100.00;100765.44;4978291;28;20046;-75
2023/07/26 02:17:19;;;;;;;5.47;2.67;;;;;;;12.90;100.00;100759.81;4970660;28;20043;-72
2023/07/26 02:19:46;;;;;;;13.90;4.07;;;;;;;12.85;100.00;100763.09;4999875;28;20054;-73
2023/07/26 02:22:12;;;;;;;12.60;4.32;;;;;;;12.65;100.00;100764.34;4999566;28;20427;-75
2023/07/26 02:24:39;;;;;;;17.83;5.35;;;;;;;12.64;100.00;100777.50;4988091;28;20097;-74
2023/07/26 02:27:05;;;;;;;11.35;4.88;;;;;;;12.71;100.00;100793.28;4997065;28;20050;-74
2023/07/26 02:29:34;;;;;;;13.90;4.05;;;;;;;12.66;100.00;100810.53;5001380;28;20054;-74
2023/07/26 02:32:00;;;;;;;11.27;3.95;;;;;;;12.55;100.00;100809.97;4994657;28;20050;-73
2023/07/26 02:34:27;;;;;;;16.67;4.78;;;;;;;12.49;100.00;100806.88;4985681;28;20081;-73
2023/07/26 02:36:54;;;;;;;9.25;4.10;;;;;;;12.35;100.00;100802.34;4986265;28;20058;-73
2023/07/26 02:39:20;;;;;;;8.10;4.55;;;;;;;12.31;100.00;100801.63;4985466;28;20074;-73
2023/07/26 02:41:47;;;;;;;13.93;5.03;;;;;;;12.27;100.00;100800.91;4984154;28;20070;-73
2023/07/26 02:44:13;;;;;;;12.88;4.85;;;;;;;12.19;100.00;100799.44;4982748;28;20046;-73
2023/07/26 02:46:40;;;;;;;15.73;5.88;;;;;;;12.21;100.00;100799.03;4978998;28;20125;-73
2023/07/26 02:49:06;;;;;;;14.13;5.68;;;;;;;12.22;100.00;100795.00;4985100;28;20557;-73
2023/07/26 02:51:33;;;;;;;11.68;5.35;;;;;;;12.13;100.00;100798.38;4988156;28;20069;-73
2023/07/26 02:54:00;;;;;;;14.55;5.90;;;;;;;12.14;100.00;100793.59;4988344;28;20080;-73
2023/07/26 02:56:26;;;;;;;14.07;5.95;;;;;;;12.17;100.00;100799.09;4983372;28;20086;-74
2023/07/26 02:58:53;;;;;;;15.00;6.10;;;;;;;12.13;100.00;100794.81;4984379;28;20050;-73
2023/07/26 03:01:19;;;;;;;12.73;5.95;;;;;;;12.12;100.00;100796.03;4988587;28;20042;-73
2023/07/26 03:03:46;;;;;;;12.85;5.15;;;;;;;12.04;100.00;100806.50;4989260;28;20081;-73
2023/07/26 03:06:12;;;;;;;12.77;5.63;;;;;;;12.04;100.00;100806.50;4989829;28;20042;-73
2023/07/26 03:08:39;;;;;;;13.55;6.35;;;;;;;12.00;100.00;100796.63;4985765;28;20142;-73
2023/07/26 03:11:05;;;;;;;11.85;5.43;;;;;;;11.91;100.00;100811.13;4989528;28;20149;-73
2023/07/26 03:13:32;;;;;;;16.85;6.22;;;;;;;11.92;100.00;100818.25;4982654;28;20111;-72
2023/07/26 03:15:58;;;;;;;13.57;6.18;;;;;;;11.99;100.00;100812.56;4983109;28;20562;-73
2023/07/26 03:18:25;;;;;;;14.85;6.18;;;;;;;12.04;100.00;100819.66;4980728;28;20152;-72
2023/07/26 03:20:51;;;;;;;18.98;7.35;;;;;;;12.04;100.00;100820.44;4983934;28;20108;-72
2023/07/26 03:23:18;;;;;;;18.27;6.47;;;;;;;12.10;100.00;100813.19;4977603;28;20097;-73
2023/07/26 03:25:45;;;;;;;14.00;6.25;;;;;;;12.16;100.00;100817.03;4971333;28;20051;-73
2023/07/26 03:28:11;;;;;;;12.93;5.80;;;;;;;12.24;100.00;100821.28;4979375;28;20050;-73
2023/07/26 03:30:38;;;;;;;15.10;5.53;;;;;;;12.13;100.00;100814.31;4987659;28;20042;-73
2023/07/26 03:33:04;;;;;;;15.23;6.45;;;;;;;12.10;100.00;100813.19;4976902;28;20080;-73
2023/07/26 03:35:31;;;;;;;15.63;6.68;;;;;;;12.16;100.00;100819.03;4972638;28;20047;-73
2023/07/26 03:37:57;;;;;;;16.27;6.70;;;;;;;12.19;100.00;100823.78;4971327;28;20138;-73
2023/07/26 03:40:24;;;;;;;15.35;6.45;;;;;;;12.14;100.00;100838.19;4988169;28;20066;-72
2023/07/26 03:42:50;;;;;;;12.07;5.47;;;;;;;12.01;100.00;100843.56;4980281;28;20109;-72
2023/07/26 03:45:17;;;;;;;15.63;6.53;;;;;;;11.96;100.00;100837.72;4976119;28;20046;-72
2023/07/26 03:47:44;;;;;;;14.70;6.82;;;;;;;11.91;100.00;100836.19;4973623;28;20054;-70
2023/07/26 03:50:10;;;;;;;15.40;7.28;;;;;;;11.95;100.00;100834.13;4984536;28;20058;-72
2023/07/26 03:52:37;;;;;;;19.55;8.23;;;;;;;12.03;100.00;100834.81;4989188;28;20422;-72
2023/07/26 03:55:04;;;;;;;12.25;5.88;;;;;;;11.90;100.00;100840.19;4978515;28;20120;-72
2023/07/26 03:57:31;;;;;;;13.02;6.40;;;;;;;11.92;100.00;100836.97;4973870;28;20054;-71
2023/07/26 03:59:58;;;;;;;15.85;5.78;;;;;;;11.88;100.00;100830.66;4986321;28;20057;-73
2023/07/26 04:02:24;;;;;;;9.45;4.95;;;;;;;11.91;100.00;100838.97;4988367;28;20062;-72
2023/07/26 04:04:51;;;;;;;12.40;4.93;;;;;;;11.93;100.00;100833.78;4986261;28;20058;-72
2023/07/26 04:07:17;;;;;;;14.45;5.60;;;;;;;11.99;100.00;100828.50;4976917;28;20054;-72
2023/07/26 04:09:44;;;;;;;12.93;5.72;;;;;;;11.99;100.00;100825.72;4979864;28;20074;-72
2023/07/26 04:12:11;;;;;;;12.73;6.20;;;;;;;12.03;100.00;100832.00;4980274;28;20062;-73
2023/07/26 04:14:37;;;;;;;14.50;6.10;;;;;;;12.05;100.00;100838.72;4989675;28;20077;-73
2023/07/26 04:17:04;;;;;;;17.98;6.50;;;;;;;12.07;100.00;100836.31;4982287;28;20145;-73
2023/07/26 04:19:30;;;;;;;18.17;6.55;;;;;;;12.00;100.00;100836.44;4977280;28;20055;-73
2023/07/26 04:21:57;;;;;;;17.58;7.25;;;;;;;11.91;100.00;100838.97;4980341;28;20133;-72
2023/07/26 04:24:24;;;;;;;17.52;7.18;;;;;;;11.95;100.00;100839.69;4982872;28;20133;-72
2023/07/26 04:26:50;;;;;;;19.92;8.40;;;;;;;11.95;100.00;100839.69;4991226;28;20046;-71
2023/07/26 04:29:17;;;;;;;18.02;7.47;;;;;;;11.95;100.00;100845.28;4990337;28;20428;-72
2023/07/26 04:31:44;;;;;;;17.00;7.70;;;;;;;11.93;100.00;100846.91;4984204;28;20058;-72
2023/07/26 04:34:12;;;;;;;18.23;8.30;;;;;;;11.96;100.00;100846.84;4980224;28;20490;-73
2023/07/26 04:36:38;;;;;;;16.08;7.50;;;;;;;11.92;100.00;100851.69;4985284;28;20132;-73
2023/07/26 04:39:05;;;;;;;16.55;7.82;;;;;;;11.84;100.00;100861.38;4973557;28;20070;-72
2023/07/26 04:41:33;;;;;;;18.65;7.95;;;;;;;11.84;100.00;100853.03;4976909;28;20074;-71
2023/07/26 04:43:59;;;;;;;19.10;7.30;;;;;;;11.84;100.00;100861.38;4978384;28;20082;-73
2023/07/26 04:46:26;;;;;;;16.15;8.10;;;;;;;11.90;100.00;100864.47;4993365;28;20086;-73
2023/07/26 04:48:52;;;;;;;20.27;7.95;;;;;;;11.89;100.00;100863.66;4985968;28;20043;-72
2023/07/26 04:51:21;;;;;;;16.08;7.70;;;;;;;11.95;100.00;100861.22;4981231;28;20130;-72
2023/07/26 04:53:47;;;;;;;14.88;7.10;;;;;;;11.85;100.00;100854.59;4978343;28;20050;-73
2023/07/26 04:56:15;;;;;;;17.27;7.50;;;;;;;11.96;100.00;100857.22;4989289;28;20569;-72
2023/07/26 04:58:42;;;;;;;17.30;7.78;;;;;;;12.00;100.00;100867.09;4989406;28;20070;-73
2023/07/26 05:01:09;;;;;;;19.35;7.72;;;;;;;12.05;100.00;100858.22;4988187;28;20590;-72
2023/07/26 05:03:38;;;;;;;16.30;7.75;;;;;;;12.04;100.00;100865.03;4977702;28;20137;-72
2023/07/26 05:06:04;;;;;;;16.10;6.88;;;;;;;12.00;100.00;100867.09;4988975;28;20081;-73
2023/07/26 05:08:31;;;;;;;15.13;8.00;;;;;;;12.08;100.00;100864.94;4986316;28;20096;-72
2023/07/26 05:10:57;;;;;;;14.65;6.90;;;;;;;12.02;100.00;100867.44;4974874;28;20078;-73
2023/07/26 05:13:24;;;;;;;17.38;8.32;;;;;;;12.09;100.00;100866.53;4981927;28;20046;-73
2023/07/26 05:15:50;;;;;;;20.25;7.32;;;;;;;12.07;100.00;100866.16;4984722;28;20055;-72
2023/07/26 05:18:17;;;;;;;13.80;5.95;;;;;;;12.05;100.00;100865.78;4979786;28;20054;-73
2023/07/26 05:20:43;;;;;;;16.50;7.20;;;;;;;12.05;100.00;100872.16;4981641;28;20059;-72
2023/07/26 05:23:10;;;;;;;15.73;7.07;;;;;;;12.09;100.00;100861.75;4975051;28;20054;-73
2023/07/26 05:25:42;;;;;;;14.18;6.13;;;;;;;12.06;100.00;100868.16;4989004;28;20054;-73
2023/07/26 05:28:09;;;;;;;8.63;3.75;;;;;;;12.07;100.00;100869.75;4981731;28;20107;-73
2023/07/26 05:30:39;;;;;;;13.38;6.05;;;;;;;12.06;100.00;100867.41;4981907;28;20097;-72
2023/07/26 05:33:06;;;;;;;11.73;5.53;;;;;;;12.05;100.00;100863.81;4980346;28;20161;-72
2023/07/26 05:35:33;;;;;;;9.63;4.35;;;;;;;12.04;100.00;100876.19;4986332;28;20105;-71
2023/07/26 05:38:01;;;;;;;16.25;6.97;;;;;;;12.04;100.00;100870.59;4956198;28;20468;-72
2023/07/26 05:40:27;;;;;;;16.77;7.28;;;;;;;12.07;100.00;100864.19;4972788;28;20054;-72
2023/07/26 05:42:54;;;;;;;19.67;6.82;;;;;;;12.18;100.00;100866.78;4981511;28;20509;-73
2023/07/26 05:45:23;;;;;;;13.60;6.13;;;;;;;12.16;100.00;100863.63;4985651;28;20162;-73
2023/07/26 05:47:50;;;;;;;12.52;6.10;;;;;;;12.13;100.00;100862.47;4972317;28;20058;-72
2023/07/26 05:50:17;;;;;;;13.68;6.68;;;;;;;12.20;100.00;100869.94;4981013;28;20061;-73
2023/07/26 05:52:43;;;;;;;14.32;6.70;;;;;;;12.19;100.00;100866.34;4981182;28;20050;-73
2023/07/26 05:55:11;;;;;;;14.60;7.50;;;;;;;12.26;100.00;100865.44;4986614;28;20490;-72
2023/07/26 05:57:38;;;;;;;14.55;7.40;;;;;;;12.37;100.00;100866.88;4982679;28;20042;-73
2023/07/26 06:00:05;;;;;;;13.68;7.03;;;;;;;12.36;100.00;100864.50;4975807;28;20096;-73
2023/07/26 06:02:32;;;;;;;12.75;4.65;;;;;;;12.37;100.00;100855.72;4982995;28;20101;-73
2023/07/26 06:04:58;;;;;;;14.65;5.88;;;;;;;12.48;100.00;100870.25;4983896;28;20058;-71
2023/07/26 06:07:25;;;;;;;11.60;5.72;;;;;;;12.56;100.00;100868.13;4985664;28;20491;-70
2023/07/26 06:09:52;;;;;;;14.23;6.25;;;;;;;12.55;100.00;100866.53;4987629;28;20563;-71
2023/07/26 06:12:18;;;;;;;13.82;6.70;;;;;;;12.68;100.00;100866.66;4987715;28;20093;-70
2023/07/26 06:14:45;;;;;;;10.18;4.18;;;;;;;12.59;100.00;100856.06;4986779;28;20050;-69
2023/07/26 06:17:12;;;;;;;19.05;7.75;;;;;;;12.62;100.00;100857.25;4986171;28;20140;-71
2023/07/26 06:19:38;;;;;;;14.20;6.35;;;;;;;12.70;100.00;100861.47;4977385;28;20089;-72
2023/07/26 06:22:05;;;;;;;12.52;5.80;;;;;;;12.67;100.00;100865.91;4984545;28;20069;-69
2023/07/26 06:24:32;;;;;;;12.07;5.82;;;;;;;12.72;100.00;100861.84;4994849;28;20054;-71
2023/07/26 06:26:59;;;;;;;15.15;5.45;;;;;;;12.75;100.00;100866.53;4987192;28;20074;-71
2023/07/26 06:29:26;;;;;;;15.00;6.45;;;;;;;12.79;100.00;100873.63;4986939;28;20042;-70
2023/07/26 06:31:53;;;;;;;12.80;5.85;;;;;;;12.85;100.00;100863.53;4992066;28;20058;-71
2023/07/26 06:34:20;;;;;;;10.35;4.78;;;;;;;12.91;100.00;100869.41;4989557;28;20046;-71
2023/07/26 06:36:46;;;;;;;17.30;6.28;;;;;;;12.90;100.00;100870.63;4994581;28;20054;-71
2023/07/26 06:39:13;;;;;;;6.15;2.25;;;;;;;12.87;100.00;100874.25;4986817;28;20046;-70
2023/07/26 06:41:40;;;;;;;10.88;3.47;;;;;;;12.89;100.00;100874.63;4995837;28;20494;-69
2023/07/26 06:44:06;;;;;;;14.18;6.22;;;;;;;13.03;100.00;100885.50;4989432;28;20119;-71
2023/07/26 06:46:33;;;;;;;14.55;6.25;;;;;;;13.19;100.00;100883.56;4991796;28;20121;-71
2023/07/26 06:49:01;;;;;;;15.45;6.60;;;;;;;13.34;100.00;100884.84;4990701;28;20054;-71
2023/07/26 06:51:28;;;;;;;13.18;5.97;;;;;;;13.46;100.00;100880.59;4988475;28;20136;-71
2023/07/26 06:53:55;;;;;;;14.23;6.03;;;;;;;13.36;100.00;100881.59;4987641;28;20085;-72
2023/07/26 06:56:21;;;;;;;5.72;2.25;;;;;;;13.46;100.00;100880.59;4986428;28;20049;-71
2023/07/26 06:58:51;;;;;;;11.40;5.15;;;;;;;13.56;100.00;100885.16;4985245;28;20790;-72
2023/07/26 07:01:18;;;;;;;5.72;2.55;;;;;;;13.45;100.00;100873.44;4988113;28;20053;-72
2023/07/26 07:03:45;;;;;;;11.85;3.80;;;;;;;13.56;100.00;100879.56;4979218;28;20050;-70
2023/07/26 07:06:15;;;;;;;17.77;6.03;;;;;;;13.59;100.00;100885.09;4978093;28;20490;-74
2023/07/26 07:08:41;;;;;;;9.27;4.18;;;;;;;13.67;100.00;100880.13;4985597;28;20129;-74
2023/07/26 07:11:08;;;;;;;16.58;6.38;;;;;;;13.93;100.00;100871.50;4987266;28;20125;-73
2023/07/26 07:13:36;;;;;;;24.90;6.70;;;;;;;14.00;100.00;100881.69;4987802;28;20050;-71
2023/07/26 07:16:03;;;;;;;14.80;5.88;;;;;;;14.10;100.00;100877.84;4982855;28;20065;-73
2023/07/26 07:18:31;;;;;;;17.63;7.95;;;;;;;14.11;100.00;100876.66;4981985;28;20054;-72
2023/07/26 07:21:00;;;;;;;6.55;3.13;;;;;;;13.97;100.00;100874.97;4980758;28;20150;-70
2023/07/26 07:23:28;;;;;;;6.22;3.03;;;;;;;14.15;100.00;100877.34;4988963;28;20502;-71
2023/07/26 07:25:56;;;;;;;15.38;6.38;;;;;;;14.20;100.00;100883.19;4981922;28;20054;-73
2023/07/26 07:28:22;;;;;;;17.60;7.10;;;;;;;14.38;100.00;100888.34;4984301;28;20120;-73
2023/07/26 07:30:49;;;;;;;8.13;4.30;;;;;;;14.38;100.00;100885.53;4980597;28;20051;-71
2023/07/26 07:33:16;;;;;;;20.95;8.20;;;;;;;14.42;100.00;100872.28;4979492;28;20069;-72
2023/07/26 07:35:43;;;;;;;9.52;4.63;;;;;;;14.46;100.00;100873.75;4978752;28;20050;-69
2023/07/26 07:38:09;;;;;;;11.27;4.32;;;;;;;14.60;100.00;100878.97;4983094;28;20604;-69
2023/07/26 07:40:37;;;;;;;10.07;4.03;;;;;;;14.57;100.00;100871.44;4978909;28;20075;-73
2023/07/26 07:43:03;;;;;;;15.45;6.25;;;;;;;14.73;100.00;100870.63;4977323;28;20054;-72
2023/07/26 07:45:30;;;;;;;16.08;7.10;;;;;;;14.87;100.00;100875.81;4982726;28;20105;-72
2023/07/26 07:47:57;;;;;;;9.18;4.20;;;;;;;14.89;100.00;100876.16;4985357;28;20056;-73
2023/07/26 07:50:23;;;;;;;13.52;6.68;;;;;;;15.14;100.00;100881.03;4991367;28;20492;-73
2023/07/26 07:52:50;;;;;;;16.25;6.50;;;;;;;15.02;100.00;100874.16;4990508;28;20088;-74
2023/07/26 07:55:17;;;;;;;18.02;7.53;;;;;;;15.15;100.00;100877.78;4991351;28;20080;-74
2023/07/26 07:57:43;;;;;;;14.02;6.28;;;;;;;15.20;100.00;100868.03;4982537;28;20058;-72
2023/07/26 08:00:11;;;;;;;26.50;11.68;;;;;;;15.43;100.00;100867.78;4985515;28;20581;-76
2023/07/26 08:02:37;;;;;;;24.15;11.07;;;;;;;15.51;100.00;100871.91;4981534;28;20057;-72
2023/07/26 08:05:04;;;;;;;21.40;10.48;;;;;;;15.48;100.00;100870.00;4989668;28;20101;-71
2023/07/26 08:07:31;;;;;;;13.27;4.75;;;;;;;15.25;100.00;100859.88;4990519;28;20100;-73
2023/07/26 08:09:58;;;;;;;7.47;3.10;;;;;;;15.23;100.00;100870.75;4990441;28;20125;-72
2023/07/26 08:12:24;;;;;;;13.55;5.05;;;;;;;15.19;100.00;100861.66;4980943;28;20062;-72
2023/07/26 08:14:51;;;;;;;17.83;7.95;;;;;;;15.35;100.00;100867.16;4981258;28;20046;-75
2023/07/26 08:17:18;;;;;;;15.80;7.15;;;;;;;15.32;100.00;100868.06;4980792;28;20097;-72
2023/07/26 08:19:46;;;;;;;13.15;4.43;;;;;;;15.30;100.00;100869.75;4989439;28;20093;-73
2023/07/26 08:22:12;;;;;;;10.43;4.03;;;;;;;15.50;100.00;100868.34;4981600;28;20141;-72
2023/07/26 08:24:39;;;;;;;12.77;6.22;;;;;;;15.50;100.00;100857.16;4980647;28;20086;-73
2023/07/26 08:27:07;;;;;;;14.80;8.05;;;;;;;15.56;100.00;100868.56;4988234;28;20117;-72
2023/07/26 08:29:33;;;;;;;14.32;6.25;;;;;;;15.77;100.00;100865.09;4989103;28;20057;-75
2023/07/26 08:32:00;;;;;;;15.02;6.15;;;;;;;15.84;100.00;100868.47;4990644;28;20781;-71
2023/07/26 08:34:27;;;;;;;19.95;8.45;;;;;;;16.11;100.00;100863.16;4986412;28;20589;-72
2023/07/26 08:36:53;;;;;;;16.90;7.85;;;;;;;16.24;100.00;100868.72;4988085;28;20150;-72
2023/07/26 08:39:20;;;;;;;13.30;4.68;;;;;;;15.79;100.00;100869.00;4968988;28;20125;-72
2023/07/26 08:42:03;;;;;;;9.48;3.92;;;;;;;15.89;100.00;100859.47;4987449;28;20054;-72
2023/07/26 08:44:31;;;;;;;12.57;6.00;;;;;;;15.90;100.00;100869.44;4986053;28;20069;-74
2023/07/26 08:46:59;;;;;;;18.98;7.82;;;;;;;16.28;100.00;100863.81;4997922;28;20069;-71
2023/07/26 08:49:27;;;;;;;11.30;5.53;;;;;;;16.30;100.00;100867.72;4987175;28;20418;-69
2023/07/26 08:51:55;;;;;;;8.25;3.03;;;;;;;16.39;100.00;100859.41;4990378;28;20050;-69
2023/07/26 08:54:24;;;;;;;11.80;4.80;;;;;;;16.60;100.00;100855.84;4988797;28;20142;-72
2023/07/26 08:56:52;;;;;;;13.18;5.20;;;;;;;16.61;100.00;100854.59;4973314;28;20046;-76
2023/07/26 08:59:19;;;;;;;16.95;8.93;;;;;;;16.99;100.00;100843.16;4988680;28;20053;-75
2023/07/26 09:01:46;;;;;;;19.33;7.93;;;;;;;17.22;100.00;100851.16;4990599;28;20054;-74
2023/07/26 09:04:30;;;;;;;11.15;4.70;;;;;;;16.97;100.00;100848.44;4989234;28;20518;-70
2023/07/26 09:07:03;;;;;;;19.27;8.93;;;;;;;16.96;100.00;100842.06;4988129;28;20058;-71
2023/07/26 09:09:34;;;;;;;15.25;7.85;;;;;;;17.24;100.00;100835.38;4988295;28;20050;-75
2023/07/26 09:12:02;;;;;;;15.75;7.28;;;;;;;17.33;100.00;100831.84;4990307;28;20536;-74
2023/07/26 09:14:31;;;;;;;14.82;7.30;;;;;;;17.47;100.00;100838.91;4987701;28;20645;-73
2023/07/26 09:17:03;;;;;;;14.32;7.28;;;;;;;17.53;100.00;100845.50;4985487;28;20070;-73
2023/07/26 09:19:35;;;;;;;10.95;6.20;;;;;;;17.52;100.00;100839.13;4988085;28;20042;-73
2023/07/26 09:22:04;;;;;;;12.48;6.60;;;;;;;17.67;100.00;100833.69;4989230;28;20057;-73
2023/07/26 09:24:36;;;;;;;12.13;5.45;;;;;;;17.58;100.00;100844.91;4989098;28;20544;-73
2023/07/26 09:27:04;;;;;;;7.45;3.72;;;;;;;17.43;100.00;100851.09;4991596;28;20050;-73
2023/07/26 09:29:31;;;;;;;5.85;2.40;;;;;;;17.18;100.00;100870.94;4991016;28;20062;-75
2023/07/26 09:31:58;;;;;;;2.78;1.27;;;;;;;16.72;100.00;100880.28;4980681;28;20046;-73
2023/07/26 09:34:24;;;;;;;2.45;1.33;;;;;;;16.34;100.00;100888.00;4989376;28;20078;-73
2023/07/26 09:36:52;;;;;;;2.90;1.38;;;;;;;15.59;100.00;100902.06;4987418;28;20191;-74
2023/07/26 09:39:21;;;;;;;6.05;1.88;;;;;;;14.86;100.00;100916.22;4982914;28;20046;-74
2023/07/26 09:41:50;;;;;;;5.75;2.20;;;;;;;14.39;100.00;100917.88;4987977;28;20128;-75
2023/07/26 09:44:19;;;;;;;6.40;2.15;;;;;;;14.10;100.00;100925.38;4988358;28;20526;-76
2023/07/26 09:46:50;;;;;;;4.35;2.00;;;;;;;13.78;100.00;100930.94;4971805;28;20825;-74
2023/07/26 09:49:19;;;;;;;5.28;2.53;;;;;;;13.63;100.00;100918.50;4980816;28;20136;-74
2023/07/26 09:51:53;;;;;;;4.85;2.05;;;;;;;13.40;100.00;100924.19;4945291;29;20074;-74
2023/07/26 09:54:28;;;;;;;3.47;1.88;;;;;;;13.12;100.00;100925.56;4891682;29;20127;-73
2023/07/26 09:57:01;;;;;;;5.38;2.10;;;;;;;13.03;100.00;100930.94;4892459;29;20056;-75
2023/07/26 09:59:29;;;;;;;6.25;1.65;;;;;;;12.89;100.00;100931.22;4874640;29;20453;-75
2023/07/26 10:02:03;;;;;;;5.13;2.40;;;;;;;12.74;100.00;100931.91;4871597;29;20093;-74
2023/07/26 10:04:46;;;;;;;3.20;1.88;;;;;;;12.72;100.00;100935.13;4855372;29;20772;-73
2023/07/26 10:07:13;;;;;;;6.32;2.22;;;;;;;12.69;100.00;100933.19;4874282;29;20056;-75
2023/07/26 10:09:44;;;;;;;4.63;1.92;;;;;;;12.64;100.00;100921.75;4882420;29;20718;-73
2023/07/26 10:12:12;;;;;;;8.00;2.80;;;;;;;12.68;100.00;100919.66;4929574;28;20113;-75
2023/07/26 10:14:40;;;;;;;4.95;2.47;;;;;;;12.82;100.00;100922.97;4970986;28;20357;-77
2023/07/26 10:17:07;;;;;;;7.88;3.00;;;;;;;12.92;100.00;100919.19;4972366;28;20074;-74
2023/07/26 10:19:36;;;;;;;5.82;2.40;;;;;;;12.98;100.00;100911.09;4987999;28;20110;-74
2023/07/26 10:22:05;;;;;;;4.90;2.67;;;;;;;13.09;100.00;100914.47;4981833;28;20058;-71
2023/07/26 10:24:36;;;;;;;4.50;2.22;;;;;;;13.27;100.00;100921.25;4981378;28;20474;-73
2023/07/26 10:27:04;;;;;;;4.45;2.20;;;;;;;13.39;100.00;100908.66;4975525;28;20050;-74
2023/07/26 10:29:31;;;;;;;4.05;1.92;;;;;;;13.51;100.00;100905.22;4973417;28;20541;-70
2023/07/26 10:32:06;;;;;;;4.03;1.60;;;;;;;13.66;100.00;100901.69;4987485;28;20506;-70
2023/07/26 10:34:33;;;;;;;7.03;2.45;;;;;;;13.73;100.00;100904.31;4987669;28;20042;-69
2023/07/26 10:37:16;;;;;;;7.85;2.25;;;;;;;13.62;100.00;100889.81;4979487;28;20165;-76
2023/07/26 10:39:44;;;;;;;3.35;1.25;;;;;;;13.56;100.00;100894.31;4977680;28;20113;-77
2023/07/26 10:42:37;;;;;;;3.47;1.63;;;;;;;13.65;100.00;100886.16;4982352;28;20142;-80
2023/07/26 10:45:04;;;;;;;6.20;2.17;;;;;;;13.85;100.00;100888.88;4986312;28;20498;-82
2023/07/26 10:47:31;;;;;;;5.63;2.30;;;;;;;14.05;100.00;100897.97;4985600;28;20410;-80
2023/07/26 10:50:05;;;;;;;6.20;2.60;;;;;;;14.23;100.00;100898.28;4992406;28;20074;-77
2023/07/26 10:52:36;;;;;;;7.15;2.40;;;;;;;14.36;100.00;100907.56;4981913;28;20058;-74
2023/07/26 10:55:24;;;;;;;6.05;2.90;;;;;;;14.66;100.00;100896.00;4987108;28;20050;-75
2023/07/26 10:57:50;;;;;;;7.82;3.08;;;;;;;14.96;100.00;100895.56;4987298;28;20421;-74
2023/07/26 11:00:22;;;;;;;7.38;3.60;;;;;;;15.13;100.00;100891.47;4987274;28;20046;-76
2023/07/26 11:02:59;;;;;;;9.13;3.95;;;;;;;15.32;100.00;100898.09;4972370;28;20145;-76
2023/07/26 11:05:29;;;;;;;6.78;3.20;;;;;;;15.56;100.00;100888.97;4989739;28;20757;-76
2023/07/26 11:08:00;;;;;;;5.50;2.50;;;;;;;15.43;100.00;100879.00;4994583;28;20106;-75
2023/07/26 11:10:33;;;;;;;11.85;3.40;;;;;;;15.43;100.00;100867.78;4973352;28;20042;-74
2023/07/26 11:13:14;;;;;;;8.32;3.67;;;;;;;15.65;100.00;100874.28;4982607;28;20054;-74
2023/07/26 11:15:49;;;;;;;10.98;3.90;;;;;;;15.84;100.00;100878.88;4984166;28;20509;-74